sensor_id;sensor_type;location;lat;lon;timestamp;P1;durP1;ratioP1;P2;durP2;ratioP2
7665;SDS011;3875;46.562;4.898;2023-04-25T00:01:45;6.37;;;2.77;;
7665;SDS011;3875;46.562;4.898;2023-04-25T00:04:11;3.83;;;2.50;;
7665;SDS011;3875;46.562;4.898;2023-04-25T00:06:37;6.07;;;2.73;;
7665;SDS011;3875;46.562;4.898;2023-04-25T00:09:03;5.30;;;2.57;;
7665;SDS011;3875;46.562;4.898;2023-04-25T00:11:32;5.03;;;2.60;;
7665;SDS011;3875;46.562;4.898;2023-04-25T00:13:58;6.57;;;2.77;;
7665;SDS011;3875;46.562;4.898;2023-04-25T00:16:24;8.17;;;2.90;;
7665;SDS011;3875;46.562;4.898;2023-04-25T00:18:50;7.60;;;2.77;;
7665;SDS011;3875;46.562;4.898;2023-04-25T00:21:18;4.20;;;2.77;;
7665;SDS011;3875;46.562;4.898;2023-04-25T00:23:45;5.23;;;3.23;;
7665;SDS011;3875;46.562;4.898;2023-04-25T00:26:11;6.33;;;2.77;;
7665;SDS011;3875;46.562;4.898;2023-04-25T00:28:37;9.40;;;3.07;;
7665;SDS011;3875;46.562;4.898;2023-04-25T00:31:04;5.67;;;2.77;;
7665;SDS011;3875;46.562;4.898;2023-04-25T00:33:29;5.07;;;2.77;;
7665;SDS011;3875;46.562;4.898;2023-04-25T00:35:55;7.17;;;2.77;;
7665;SDS011;3875;46.562;4.898;2023-04-25T00:38:21;7.93;;;3.20;;
7665;SDS011;3875;46.562;4.898;2023-04-25T00:40:47;10.67;;;3.37;;
7665;SDS011;3875;46.562;4.898;2023-04-25T00:43:13;4.57;;;3.37;;
7665;SDS011;3875;46.562;4.898;2023-04-25T00:45:39;6.67;;;2.90;;
7665;SDS011;3875;46.562;4.898;2023-04-25T00:48:05;6.10;;;2.80;;
7665;SDS011;3875;46.562;4.898;2023-04-25T00:50:32;7.50;;;3.10;;
7665;SDS011;3875;46.562;4.898;2023-04-25T00:52:59;4.57;;;2.70;;
7665;SDS011;3875;46.562;4.898;2023-04-25T00:55:26;4.80;;;2.50;;
7665;SDS011;3875;46.562;4.898;2023-04-25T00:57:52;7.17;;;2.93;;
7665;SDS011;3875;46.562;4.898;2023-04-25T01:00:18;6.83;;;2.70;;
7665;SDS011;3875;46.562;4.898;2023-04-25T01:02:44;5.70;;;2.67;;
7665;SDS011;3875;46.562;4.898;2023-04-25T01:05:10;8.03;;;3.37;;
7665;SDS011;3875;46.562;4.898;2023-04-25T01:07:37;3.80;;;2.70;;
7665;SDS011;3875;46.562;4.898;2023-04-25T01:10:03;4.80;;;2.83;;
7665;SDS011;3875;46.562;4.898;2023-04-25T01:12:29;6.73;;;2.80;;
7665;SDS011;3875;46.562;4.898;2023-04-25T01:14:55;4.90;;;2.97;;
7665;SDS011;3875;46.562;4.898;2023-04-25T01:17:21;5.20;;;2.43;;
7665;SDS011;3875;46.562;4.898;2023-04-25T01:19:47;6.57;;;3.03;;
7665;SDS011;3875;46.562;4.898;2023-04-25T01:22:14;7.10;;;2.73;;
7665;SDS011;3875;46.562;4.898;2023-04-25T01:24:40;7.43;;;2.43;;
7665;SDS011;3875;46.562;4.898;2023-04-25T01:27:06;6.77;;;3.03;;
7665;SDS011;3875;46.562;4.898;2023-04-25T01:29:33;7.97;;;2.77;;
7665;SDS011;3875;46.562;4.898;2023-04-25T01:32:00;7.33;;;2.70;;
7665;SDS011;3875;46.562;4.898;2023-04-25T01:34:27;10.50;;;2.87;;
7665;SDS011;3875;46.562;4.898;2023-04-25T01:36:52;5.83;;;2.73;;
7665;SDS011;3875;46.562;4.898;2023-04-25T01:39:18;7.07;;;2.73;;
7665;SDS011;3875;46.562;4.898;2023-04-25T01:41:48;4.77;;;2.87;;
7665;SDS011;3875;46.562;4.898;2023-04-25T01:44:14;6.63;;;3.07;;
7665;SDS011;3875;46.562;4.898;2023-04-25T01:46:40;5.90;;;2.73;;
7665;SDS011;3875;46.562;4.898;2023-04-25T01:49:06;3.13;;;2.53;;
7665;SDS011;3875;46.562;4.898;2023-04-25T01:51:32;5.93;;;2.83;;
7665;SDS011;3875;46.562;4.898;2023-04-25T01:53:58;5.57;;;3.00;;
7665;SDS011;3875;46.562;4.898;2023-04-25T01:56:24;5.00;;;3.00;;
7665;SDS011;3875;46.562;4.898;2023-04-25T01:58:50;6.63;;;2.93;;
7665;SDS011;3875;46.562;4.898;2023-04-25T02:01:16;6.53;;;3.10;;
7665;SDS011;3875;46.562;4.898;2023-04-25T02:03:42;7.20;;;3.47;;
7665;SDS011;3875;46.562;4.898;2023-04-25T02:06:08;5.37;;;2.77;;
7665;SDS011;3875;46.562;4.898;2023-04-25T02:08:34;8.33;;;3.33;;
7665;SDS011;3875;46.562;4.898;2023-04-25T02:11:00;4.73;;;3.07;;
7665;SDS011;3875;46.562;4.898;2023-04-25T02:13:26;4.60;;;3.07;;
7665;SDS011;3875;46.562;4.898;2023-04-25T02:15:51;5.97;;;3.40;;
7665;SDS011;3875;46.562;4.898;2023-04-25T02:18:17;9.13;;;3.33;;
7665;SDS011;3875;46.562;4.898;2023-04-25T02:20:43;6.90;;;3.10;;
7665;SDS011;3875;46.562;4.898;2023-04-25T02:23:09;4.67;;;3.27;;
7665;SDS011;3875;46.562;4.898;2023-04-25T02:25:34;5.27;;;3.00;;
7665;SDS011;3875;46.562;4.898;2023-04-25T02:28:00;7.73;;;3.30;;
7665;SDS011;3875;46.562;4.898;2023-04-25T02:30:26;7.47;;;3.07;;
7665;SDS011;3875;46.562;4.898;2023-04-25T02:32:52;9.53;;;3.17;;
7665;SDS011;3875;46.562;4.898;2023-04-25T02:35:17;5.07;;;3.17;;
7665;SDS011;3875;46.562;4.898;2023-04-25T02:37:43;7.37;;;4.03;;
7665;SDS011;3875;46.562;4.898;2023-04-25T02:40:09;6.00;;;3.40;;
7665;SDS011;3875;46.562;4.898;2023-04-25T02:42:35;5.90;;;3.43;;
7665;SDS011;3875;46.562;4.898;2023-04-25T02:45:01;8.27;;;3.67;;
7665;SDS011;3875;46.562;4.898;2023-04-25T02:47:27;9.77;;;4.13;;
7665;SDS011;3875;46.562;4.898;2023-04-25T02:49:53;8.57;;;4.00;;
7665;SDS011;3875;46.562;4.898;2023-04-25T02:52:18;8.07;;;4.17;;
7665;SDS011;3875;46.562;4.898;2023-04-25T02:54:44;8.13;;;4.37;;
7665;SDS011;3875;46.562;4.898;2023-04-25T02:57:09;5.80;;;3.90;;
7665;SDS011;3875;46.562;4.898;2023-04-25T02:59:35;6.90;;;3.60;;
7665;SDS011;3875;46.562;4.898;2023-04-25T03:02:01;7.90;;;4.20;;
7665;SDS011;3875;46.562;4.898;2023-04-25T03:04:26;7.47;;;4.13;;
7665;SDS011;3875;46.562;4.898;2023-04-25T03:06:52;9.03;;;4.13;;
7665;SDS011;3875;46.562;4.898;2023-04-25T03:09:18;6.47;;;4.10;;
7665;SDS011;3875;46.562;4.898;2023-04-25T03:11:45;7.10;;;4.87;;
7665;SDS011;3875;46.562;4.898;2023-04-25T03:14:11;7.07;;;4.13;;
7665;SDS011;3875;46.562;4.898;2023-04-25T03:16:37;6.97;;;4.70;;
7665;SDS011;3875;46.562;4.898;2023-04-25T03:19:03;14.83;;;5.13;;
7665;SDS011;3875;46.562;4.898;2023-04-25T03:21:30;10.37;;;4.47;;
7665;SDS011;3875;46.562;4.898;2023-04-25T03:23:57;8.60;;;4.43;;
7665;SDS011;3875;46.562;4.898;2023-04-25T03:26:23;8.23;;;4.77;;
7665;SDS011;3875;46.562;4.898;2023-04-25T03:28:49;9.13;;;4.77;;
7665;SDS011;3875;46.562;4.898;2023-04-25T03:31:15;9.83;;;5.03;;
7665;SDS011;3875;46.562;4.898;2023-04-25T03:33:40;7.13;;;4.67;;
7665;SDS011;3875;46.562;4.898;2023-04-25T03:36:06;13.23;;;4.70;;
7665;SDS011;3875;46.562;4.898;2023-04-25T03:38:32;8.17;;;5.10;;
7665;SDS011;3875;46.562;4.898;2023-04-25T03:40:58;8.80;;;4.77;;
7665;SDS011;3875;46.562;4.898;2023-04-25T03:43:23;9.50;;;5.50;;
7665;SDS011;3875;46.562;4.898;2023-04-25T03:45:49;9.87;;;4.73;;
7665;SDS011;3875;46.562;4.898;2023-04-25T03:48:15;12.67;;;5.70;;
7665;SDS011;3875;46.562;4.898;2023-04-25T03:50:41;11.53;;;4.80;;
7665;SDS011;3875;46.562;4.898;2023-04-25T03:53:06;14.07;;;5.33;;
7665;SDS011;3875;46.562;4.898;2023-04-25T03:55:32;8.13;;;4.87;;
7665;SDS011;3875;46.562;4.898;2023-04-25T03:57:58;9.70;;;5.30;;
7665;SDS011;3875;46.562;4.898;2023-04-25T04:00:24;11.17;;;5.13;;
7665;SDS011;3875;46.562;4.898;2023-04-25T04:02:50;9.13;;;5.00;;
7665;SDS011;3875;46.562;4.898;2023-04-25T04:05:16;10.83;;;5.27;;
7665;SDS011;3875;46.562;4.898;2023-04-25T04:07:41;7.73;;;5.60;;
7665;SDS011;3875;46.562;4.898;2023-04-25T04:10:08;16.27;;;5.00;;
7665;SDS011;3875;46.562;4.898;2023-04-25T04:12:35;7.13;;;4.90;;
7665;SDS011;3875;46.562;4.898;2023-04-25T04:15:01;7.20;;;4.77;;
7665;SDS011;3875;46.562;4.898;2023-04-25T04:17:28;10.70;;;5.30;;
7665;SDS011;3875;46.562;4.898;2023-04-25T04:19:54;10.00;;;5.13;;
7665;SDS011;3875;46.562;4.898;2023-04-25T04:22:20;11.07;;;5.30;;
7665;SDS011;3875;46.562;4.898;2023-04-25T04:24:46;7.53;;;5.20;;
7665;SDS011;3875;46.562;4.898;2023-04-25T04:27:12;13.97;;;5.50;;
7665;SDS011;3875;46.562;4.898;2023-04-25T04:29:38;7.80;;;5.13;;
7665;SDS011;3875;46.562;4.898;2023-04-25T04:32:04;13.53;;;5.47;;
7665;SDS011;3875;46.562;4.898;2023-04-25T04:34:29;7.37;;;4.97;;
7665;SDS011;3875;46.562;4.898;2023-04-25T04:36:56;9.57;;;5.00;;
7665;SDS011;3875;46.562;4.898;2023-04-25T04:39:22;7.10;;;5.43;;
7665;SDS011;3875;46.562;4.898;2023-04-25T04:41:47;9.67;;;4.97;;
7665;SDS011;3875;46.562;4.898;2023-04-25T04:44:13;6.03;;;4.83;;
7665;SDS011;3875;46.562;4.898;2023-04-25T04:46:39;14.03;;;5.40;;
7665;SDS011;3875;46.562;4.898;2023-04-25T04:49:09;12.70;;;4.93;;
7665;SDS011;3875;46.562;4.898;2023-04-25T04:51:41;9.57;;;5.70;;
7665;SDS011;3875;46.562;4.898;2023-04-25T04:54:09;12.20;;;5.97;;
7665;SDS011;3875;46.562;4.898;2023-04-25T04:56:35;10.93;;;5.70;;
7665;SDS011;3875;46.562;4.898;2023-04-25T04:59:01;11.97;;;5.67;;
7665;SDS011;3875;46.562;4.898;2023-04-25T05:01:27;6.30;;;5.57;;
7665;SDS011;3875;46.562;4.898;2023-04-25T05:03:55;7.97;;;5.77;;
7665;SDS011;3875;46.562;4.898;2023-04-25T05:06:25;6.70;;;5.23;;
7665;SDS011;3875;46.562;4.898;2023-04-25T05:08:54;7.10;;;4.80;;
7665;SDS011;3875;46.562;4.898;2023-04-25T05:11:21;10.00;;;5.13;;
7665;SDS011;3875;46.562;4.898;2023-04-25T05:13:48;7.77;;;4.63;;
7665;SDS011;3875;46.562;4.898;2023-04-25T05:16:14;10.00;;;5.27;;
7665;SDS011;3875;46.562;4.898;2023-04-25T05:18:40;10.27;;;5.57;;
7665;SDS011;3875;46.562;4.898;2023-04-25T05:21:07;8.33;;;5.33;;
7665;SDS011;3875;46.562;4.898;2023-04-25T05:23:32;9.80;;;5.30;;
7665;SDS011;3875;46.562;4.898;2023-04-25T05:25:58;9.27;;;5.50;;
7665;SDS011;3875;46.562;4.898;2023-04-25T05:28:24;8.97;;;5.40;;
7665;SDS011;3875;46.562;4.898;2023-04-25T05:30:50;12.97;;;5.20;;
7665;SDS011;3875;46.562;4.898;2023-04-25T05:33:16;6.87;;;5.27;;
7665;SDS011;3875;46.562;4.898;2023-04-25T05:35:41;10.40;;;5.70;;
7665;SDS011;3875;46.562;4.898;2023-04-25T05:38:07;6.67;;;5.17;;
7665;SDS011;3875;46.562;4.898;2023-04-25T05:40:33;7.63;;;5.73;;
7665;SDS011;3875;46.562;4.898;2023-04-25T05:42:59;9.80;;;5.03;;
7665;SDS011;3875;46.562;4.898;2023-04-25T05:45:25;7.77;;;5.17;;
7665;SDS011;3875;46.562;4.898;2023-04-25T05:47:50;7.83;;;4.80;;
7665;SDS011;3875;46.562;4.898;2023-04-25T05:50:16;10.50;;;4.87;;
7665;SDS011;3875;46.562;4.898;2023-04-25T05:52:42;10.77;;;4.80;;
7665;SDS011;3875;46.562;4.898;2023-04-25T05:55:07;10.57;;;5.20;;
7665;SDS011;3875;46.562;4.898;2023-04-25T05:57:33;13.47;;;4.77;;
7665;SDS011;3875;46.562;4.898;2023-04-25T05:59:59;10.53;;;4.80;;
7665;SDS011;3875;46.562;4.898;2023-04-25T06:02:25;7.47;;;4.53;;
7665;SDS011;3875;46.562;4.898;2023-04-25T06:04:51;8.37;;;4.60;;
7665;SDS011;3875;46.562;4.898;2023-04-25T06:07:17;7.83;;;4.70;;
7665;SDS011;3875;46.562;4.898;2023-04-25T06:09:44;7.10;;;4.70;;
7665;SDS011;3875;46.562;4.898;2023-04-25T06:12:10;5.43;;;3.63;;
7665;SDS011;3875;46.562;4.898;2023-04-25T06:14:36;12.80;;;4.40;;
7665;SDS011;3875;46.562;4.898;2023-04-25T06:17:02;6.23;;;4.03;;
7665;SDS011;3875;46.562;4.898;2023-04-25T06:19:33;6.27;;;4.47;;
7665;SDS011;3875;46.562;4.898;2023-04-25T06:22:00;9.13;;;4.50;;
7665;SDS011;3875;46.562;4.898;2023-04-25T06:24:26;6.63;;;4.17;;
7665;SDS011;3875;46.562;4.898;2023-04-25T06:26:51;11.20;;;4.80;;
7665;SDS011;3875;46.562;4.898;2023-04-25T06:29:17;10.17;;;4.23;;
7665;SDS011;3875;46.562;4.898;2023-04-25T06:31:43;9.00;;;4.87;;
7665;SDS011;3875;46.562;4.898;2023-04-25T06:34:09;9.87;;;4.63;;
7665;SDS011;3875;46.562;4.898;2023-04-25T06:36:35;8.23;;;4.27;;
7665;SDS011;3875;46.562;4.898;2023-04-25T06:39:00;11.40;;;4.80;;
7665;SDS011;3875;46.562;4.898;2023-04-25T06:41:26;8.27;;;4.10;;
7665;SDS011;3875;46.562;4.898;2023-04-25T06:43:52;5.77;;;3.60;;
7665;SDS011;3875;46.562;4.898;2023-04-25T06:46:17;9.53;;;4.37;;
7665;SDS011;3875;46.562;4.898;2023-04-25T06:48:43;8.37;;;4.60;;
7665;SDS011;3875;46.562;4.898;2023-04-25T06:51:09;11.47;;;4.50;;
7665;SDS011;3875;46.562;4.898;2023-04-25T06:53:35;9.00;;;4.20;;
7665;SDS011;3875;46.562;4.898;2023-04-25T06:56:01;13.00;;;4.57;;
7665;SDS011;3875;46.562;4.898;2023-04-25T06:58:26;10.17;;;4.37;;
7665;SDS011;3875;46.562;4.898;2023-04-25T07:00:52;16.83;;;5.53;;
7665;SDS011;3875;46.562;4.898;2023-04-25T07:03:18;9.80;;;4.00;;
7665;SDS011;3875;46.562;4.898;2023-04-25T07:05:43;11.30;;;4.40;;
7665;SDS011;3875;46.562;4.898;2023-04-25T07:08:10;8.70;;;3.90;;
7665;SDS011;3875;46.562;4.898;2023-04-25T07:10:36;9.43;;;4.70;;
7665;SDS011;3875;46.562;4.898;2023-04-25T07:13:02;16.23;;;4.60;;
7665;SDS011;3875;46.562;4.898;2023-04-25T07:15:28;9.10;;;4.50;;
7665;SDS011;3875;46.562;4.898;2023-04-25T07:17:54;8.70;;;4.30;;
7665;SDS011;3875;46.562;4.898;2023-04-25T07:20:19;9.00;;;4.10;;
7665;SDS011;3875;46.562;4.898;2023-04-25T07:22:45;5.40;;;3.83;;
7665;SDS011;3875;46.562;4.898;2023-04-25T07:25:11;7.00;;;3.93;;
7665;SDS011;3875;46.562;4.898;2023-04-25T07:27:37;8.68;;;4.30;;
7665;SDS011;3875;46.562;4.898;2023-04-25T07:30:03;11.13;;;4.30;;
7665;SDS011;3875;46.562;4.898;2023-04-25T07:32:29;9.07;;;4.63;;
7665;SDS011;3875;46.562;4.898;2023-04-25T07:34:55;8.23;;;4.43;;
7665;SDS011;3875;46.562;4.898;2023-04-25T07:37:21;18.10;;;4.17;;
7665;SDS011;3875;46.562;4.898;2023-04-25T07:39:46;8.27;;;4.17;;
7665;SDS011;3875;46.562;4.898;2023-04-25T07:42:12;5.17;;;3.53;;
7665;SDS011;3875;46.562;4.898;2023-04-25T07:44:38;5.93;;;4.00;;
7665;SDS011;3875;46.562;4.898;2023-04-25T07:47:08;5.30;;;4.07;;
7665;SDS011;3875;46.562;4.898;2023-04-25T07:49:35;5.83;;;3.80;;
7665;SDS011;3875;46.562;4.898;2023-04-25T07:52:02;8.03;;;4.17;;
7665;SDS011;3875;46.562;4.898;2023-04-25T07:54:28;9.50;;;4.53;;
7665;SDS011;3875;46.562;4.898;2023-04-25T07:56:54;8.93;;;3.87;;
7665;SDS011;3875;46.562;4.898;2023-04-25T07:59:20;10.53;;;4.10;;
7665;SDS011;3875;46.562;4.898;2023-04-25T08:01:46;6.23;;;3.70;;
7665;SDS011;3875;46.562;4.898;2023-04-25T08:04:12;8.70;;;3.50;;
7665;SDS011;3875;46.562;4.898;2023-04-25T08:06:38;8.43;;;4.30;;
7665;SDS011;3875;46.562;4.898;2023-04-25T08:09:03;9.63;;;3.67;;
7665;SDS011;3875;46.562;4.898;2023-04-25T08:11:29;6.37;;;3.47;;
7665;SDS011;3875;46.562;4.898;2023-04-25T08:13:55;5.07;;;3.70;;
7665;SDS011;3875;46.562;4.898;2023-04-25T08:16:20;8.93;;;3.63;;
7665;SDS011;3875;46.562;4.898;2023-04-25T08:18:47;6.20;;;3.70;;
7665;SDS011;3875;46.562;4.898;2023-04-25T08:21:13;5.97;;;3.50;;
7665;SDS011;3875;46.562;4.898;2023-04-25T08:23:40;7.33;;;3.53;;
7665;SDS011;3875;46.562;4.898;2023-04-25T08:26:06;9.40;;;3.57;;
7665;SDS011;3875;46.562;4.898;2023-04-25T08:28:32;6.43;;;3.10;;
7665;SDS011;3875;46.562;4.898;2023-04-25T08:30:57;4.73;;;3.20;;
7665;SDS011;3875;46.562;4.898;2023-04-25T08:33:23;6.60;;;3.67;;
7665;SDS011;3875;46.562;4.898;2023-04-25T08:35:49;3.53;;;3.23;;
7665;SDS011;3875;46.562;4.898;2023-04-25T08:38:14;7.27;;;3.30;;
7665;SDS011;3875;46.562;4.898;2023-04-25T08:40:40;7.57;;;3.33;;
7665;SDS011;3875;46.562;4.898;2023-04-25T08:43:08;6.13;;;2.90;;
7665;SDS011;3875;46.562;4.898;2023-04-25T08:45:38;5.63;;;3.47;;
7665;SDS011;3875;46.562;4.898;2023-04-25T08:48:11;3.73;;;2.60;;
7665;SDS011;3875;46.562;4.898;2023-04-25T08:50:45;4.13;;;2.33;;
7665;SDS011;3875;46.562;4.898;2023-04-25T08:53:21;5.00;;;2.83;;
7665;SDS011;3875;46.562;4.898;2023-04-25T08:55:50;6.33;;;2.80;;
7665;SDS011;3875;46.562;4.898;2023-04-25T08:58:17;6.17;;;2.57;;
7665;SDS011;3875;46.562;4.898;2023-04-25T09:00:43;3.10;;;2.10;;
7665;SDS011;3875;46.562;4.898;2023-04-25T09:03:11;4.40;;;2.30;;
7665;SDS011;3875;46.562;4.898;2023-04-25T09:05:38;5.73;;;2.00;;
7665;SDS011;3875;46.562;4.898;2023-04-25T09:08:05;4.77;;;2.40;;
7665;SDS011;3875;46.562;4.898;2023-04-25T09:10:31;5.20;;;2.50;;
7665;SDS011;3875;46.562;4.898;2023-04-25T09:13:04;6.83;;;2.97;;
7665;SDS011;3875;46.562;4.898;2023-04-25T09:15:46;3.60;;;2.43;;
7665;SDS011;3875;46.562;4.898;2023-04-25T09:20:51;3.17;;;2.10;;
7665;SDS011;3875;46.562;4.898;2023-04-25T09:23:22;10.77;;;1.93;;
7665;SDS011;3875;46.562;4.898;2023-04-25T09:25:49;2.57;;;2.03;;
7665;SDS011;3875;46.562;4.898;2023-04-25T09:28:16;2.67;;;1.93;;
7665;SDS011;3875;46.562;4.898;2023-04-25T09:30:47;6.47;;;1.97;;
7665;SDS011;3875;46.562;4.898;2023-04-25T09:33:13;2.53;;;1.43;;
7665;SDS011;3875;46.562;4.898;2023-04-25T09:35:40;3.33;;;1.80;;
7665;SDS011;3875;46.562;4.898;2023-04-25T09:38:11;2.83;;;1.77;;
7665;SDS011;3875;46.562;4.898;2023-04-25T09:43:10;4.00;;;1.87;;
7665;SDS011;3875;46.562;4.898;2023-04-25T09:45:43;4.23;;;1.90;;
7665;SDS011;3875;46.562;4.898;2023-04-25T09:48:10;2.40;;;1.77;;
7665;SDS011;3875;46.562;4.898;2023-04-25T09:50:37;3.87;;;2.17;;
7665;SDS011;3875;46.562;4.898;2023-04-25T09:53:04;3.13;;;1.90;;
7665;SDS011;3875;46.562;4.898;2023-04-25T09:55:33;6.73;;;1.80;;
7665;SDS011;3875;46.562;4.898;2023-04-25T09:58:02;3.00;;;1.90;;
7665;SDS011;3875;46.562;4.898;2023-04-25T10:00:32;4.37;;;2.10;;
7665;SDS011;3875;46.562;4.898;2023-04-25T10:02:59;3.17;;;1.80;;
7665;SDS011;3875;46.562;4.898;2023-04-25T10:05:29;5.90;;;1.83;;
7665;SDS011;3875;46.562;4.898;2023-04-25T10:07:57;3.87;;;1.80;;
7665;SDS011;3875;46.562;4.898;2023-04-25T10:10:25;4.73;;;1.67;;
7665;SDS011;3875;46.562;4.898;2023-04-25T10:12:53;3.80;;;2.27;;
7665;SDS011;3875;46.562;4.898;2023-04-25T10:15:19;5.87;;;2.00;;
7665;SDS011;3875;46.562;4.898;2023-04-25T10:17:46;4.13;;;2.00;;
7665;SDS011;3875;46.562;4.898;2023-04-25T10:20:14;4.70;;;2.10;;
7665;SDS011;3875;46.562;4.898;2023-04-25T10:22:49;4.43;;;1.87;;
7665;SDS011;3875;46.562;4.898;2023-04-25T10:25:19;4.93;;;1.80;;
7665;SDS011;3875;46.562;4.898;2023-04-25T10:27:45;7.03;;;2.40;;
7665;SDS011;3875;46.562;4.898;2023-04-25T10:30:13;4.70;;;2.20;;
7665;SDS011;3875;46.562;4.898;2023-04-25T10:32:41;2.70;;;1.87;;
7665;SDS011;3875;46.562;4.898;2023-04-25T10:35:14;2.13;;;1.43;;
7665;SDS011;3875;46.562;4.898;2023-04-25T10:40:35;3.83;;;2.10;;
7665;SDS011;3875;46.562;4.898;2023-04-25T10:48:56;3.47;;;1.77;;
7665;SDS011;3875;46.562;4.898;2023-04-25T10:56:26;2.67;;;2.03;;
7665;SDS011;3875;46.562;4.898;2023-04-25T11:01:57;2.43;;;2.03;;
7665;SDS011;3875;46.562;4.898;2023-04-25T11:04:29;5.67;;;1.70;;
7665;SDS011;3875;46.562;4.898;2023-04-25T11:09:34;3.63;;;2.07;;
7665;SDS011;3875;46.562;4.898;2023-04-25T11:12:00;2.13;;;1.70;;
7665;SDS011;3875;46.562;4.898;2023-04-25T11:14:26;2.60;;;1.73;;
7665;SDS011;3875;46.562;4.898;2023-04-25T11:16:53;3.00;;;1.67;;
7665;SDS011;3875;46.562;4.898;2023-04-25T11:19:20;3.40;;;1.90;;
7665;SDS011;3875;46.562;4.898;2023-04-25T11:21:46;2.53;;;1.70;;
7665;SDS011;3875;46.562;4.898;2023-04-25T11:24:12;2.93;;;1.70;;
7665;SDS011;3875;46.562;4.898;2023-04-25T11:26:38;3.73;;;1.70;;
7665;SDS011;3875;46.562;4.898;2023-04-25T11:29:06;5.27;;;1.70;;
7665;SDS011;3875;46.562;4.898;2023-04-25T11:31:32;4.27;;;1.83;;
7665;SDS011;3875;46.562;4.898;2023-04-25T11:33:57;4.03;;;1.70;;
7665;SDS011;3875;46.562;4.898;2023-04-25T11:36:24;2.37;;;1.60;;
7665;SDS011;3875;46.562;4.898;2023-04-25T11:38:51;2.27;;;1.50;;
7665;SDS011;3875;46.562;4.898;2023-04-25T11:41:18;3.93;;;1.60;;
7665;SDS011;3875;46.562;4.898;2023-04-25T11:43:45;3.23;;;1.50;;
7665;SDS011;3875;46.562;4.898;2023-04-25T11:46:11;1.53;;;1.43;;
7665;SDS011;3875;46.562;4.898;2023-04-25T11:48:38;2.13;;;1.30;;
7665;SDS011;3875;46.562;4.898;2023-04-25T11:51:04;1.70;;;1.50;;
7665;SDS011;3875;46.562;4.898;2023-04-25T11:53:30;3.83;;;1.70;;
7665;SDS011;3875;46.562;4.898;2023-04-25T11:55:56;2.83;;;1.70;;
7665;SDS011;3875;46.562;4.898;2023-04-25T11:58:22;2.43;;;1.40;;
7665;SDS011;3875;46.562;4.898;2023-04-25T12:00:48;2.60;;;1.67;;
7665;SDS011;3875;46.562;4.898;2023-04-25T12:03:14;3.90;;;1.67;;
7665;SDS011;3875;46.562;4.898;2023-04-25T12:05:39;2.87;;;1.77;;
7665;SDS011;3875;46.562;4.898;2023-04-25T12:08:15;3.40;;;2.10;;
7665;SDS011;3875;46.562;4.898;2023-04-25T12:10:42;3.63;;;1.83;;
7665;SDS011;3875;46.562;4.898;2023-04-25T12:13:23;3.50;;;1.60;;
7665;SDS011;3875;46.562;4.898;2023-04-25T12:15:50;2.97;;;2.03;;
7665;SDS011;3875;46.562;4.898;2023-04-25T12:18:18;1.77;;;1.67;;
7665;SDS011;3875;46.562;4.898;2023-04-25T12:20:46;1.90;;;1.67;;
7665;SDS011;3875;46.562;4.898;2023-04-25T12:23:11;2.03;;;1.33;;
7665;SDS011;3875;46.562;4.898;2023-04-25T12:28:14;3.50;;;1.80;;
7665;SDS011;3875;46.562;4.898;2023-04-25T12:33:28;3.60;;;1.57;;
7665;SDS011;3875;46.562;4.898;2023-04-25T12:36:01;3.60;;;1.70;;
7665;SDS011;3875;46.562;4.898;2023-04-25T12:38:35;6.17;;;1.40;;
7665;SDS011;3875;46.562;4.898;2023-04-25T12:41:02;3.27;;;1.80;;
7665;SDS011;3875;46.562;4.898;2023-04-25T12:43:28;4.27;;;1.60;;
7665;SDS011;3875;46.562;4.898;2023-04-25T12:45:54;4.20;;;1.73;;
7665;SDS011;3875;46.562;4.898;2023-04-25T12:48:21;2.73;;;1.67;;
7665;SDS011;3875;46.562;4.898;2023-04-25T12:50:47;1.93;;;1.40;;
7665;SDS011;3875;46.562;4.898;2023-04-25T12:53:17;3.00;;;1.87;;
7665;SDS011;3875;46.562;4.898;2023-04-25T12:55:48;3.07;;;1.77;;
7665;SDS011;3875;46.562;4.898;2023-04-25T12:58:15;3.67;;;1.60;;
7665;SDS011;3875;46.562;4.898;2023-04-25T13:00:43;2.57;;;1.50;;
7665;SDS011;3875;46.562;4.898;2023-04-25T13:03:09;2.90;;;1.60;;
7665;SDS011;3875;46.562;4.898;2023-04-25T13:05:36;3.43;;;1.60;;
7665;SDS011;3875;46.562;4.898;2023-04-25T13:08:01;3.60;;;2.00;;
7665;SDS011;3875;46.562;4.898;2023-04-25T13:10:27;5.77;;;1.90;;
7665;SDS011;3875;46.562;4.898;2023-04-25T13:12:53;5.13;;;1.90;;
7665;SDS011;3875;46.562;4.898;2023-04-25T13:15:19;3.87;;;2.00;;
7665;SDS011;3875;46.562;4.898;2023-04-25T13:17:45;3.77;;;2.00;;
7665;SDS011;3875;46.562;4.898;2023-04-25T13:20:11;4.13;;;1.80;;
7665;SDS011;3875;46.562;4.898;2023-04-25T13:22:38;3.17;;;1.90;;
7665;SDS011;3875;46.562;4.898;2023-04-25T13:25:05;1.93;;;1.57;;
7665;SDS011;3875;46.562;4.898;2023-04-25T13:27:32;3.30;;;1.80;;
7665;SDS011;3875;46.562;4.898;2023-04-25T13:30:02;2.60;;;1.70;;
7665;SDS011;3875;46.562;4.898;2023-04-25T13:32:33;2.13;;;1.90;;
7665;SDS011;3875;46.562;4.898;2023-04-25T13:35:01;5.17;;;1.77;;
7665;SDS011;3875;46.562;4.898;2023-04-25T13:37:27;1.70;;;1.60;;
7665;SDS011;3875;46.562;4.898;2023-04-25T13:39:54;4.20;;;1.80;;
7665;SDS011;3875;46.562;4.898;2023-04-25T13:42:21;2.87;;;2.00;;
7665;SDS011;3875;46.562;4.898;2023-04-25T13:44:48;5.83;;;1.90;;
7665;SDS011;3875;46.562;4.898;2023-04-25T13:47:13;2.90;;;1.77;;
7665;SDS011;3875;46.562;4.898;2023-04-25T13:49:39;2.37;;;1.80;;
7665;SDS011;3875;46.562;4.898;2023-04-25T13:52:04;2.40;;;2.00;;
7665;SDS011;3875;46.562;4.898;2023-04-25T13:54:31;2.60;;;1.60;;
7665;SDS011;3875;46.562;4.898;2023-04-25T13:56:56;2.30;;;1.87;;
7665;SDS011;3875;46.562;4.898;2023-04-25T13:59:24;4.20;;;1.90;;
7665;SDS011;3875;46.562;4.898;2023-04-25T14:01:50;3.93;;;1.90;;
7665;SDS011;3875;46.562;4.898;2023-04-25T14:04:16;5.53;;;1.77;;
7665;SDS011;3875;46.562;4.898;2023-04-25T14:06:42;2.10;;;1.90;;
7665;SDS011;3875;46.562;4.898;2023-04-25T14:09:08;2.93;;;1.90;;
7665;SDS011;3875;46.562;4.898;2023-04-25T14:11:36;4.73;;;1.83;;
7665;SDS011;3875;46.562;4.898;2023-04-25T14:14:02;2.37;;;1.83;;
7665;SDS011;3875;46.562;4.898;2023-04-25T14:16:28;4.00;;;1.70;;
7665;SDS011;3875;46.562;4.898;2023-04-25T14:18:54;4.03;;;1.40;;
7665;SDS011;3875;46.562;4.898;2023-04-25T14:21:20;2.80;;;1.47;;
7665;SDS011;3875;46.562;4.898;2023-04-25T14:23:46;4.57;;;1.63;;
7665;SDS011;3875;46.562;4.898;2023-04-25T14:26:12;3.20;;;1.77;;
7665;SDS011;3875;46.562;4.898;2023-04-25T14:28:38;3.93;;;1.77;;
7665;SDS011;3875;46.562;4.898;2023-04-25T14:31:03;3.00;;;1.73;;
7665;SDS011;3875;46.562;4.898;2023-04-25T14:33:29;3.17;;;1.77;;
7665;SDS011;3875;46.562;4.898;2023-04-25T14:35:55;4.77;;;1.80;;
7665;SDS011;3875;46.562;4.898;2023-04-25T14:38:21;4.83;;;1.50;;
7665;SDS011;3875;46.562;4.898;2023-04-25T14:40:51;3.87;;;1.70;;
7665;SDS011;3875;46.562;4.898;2023-04-25T14:43:18;2.77;;;1.90;;
7665;SDS011;3875;46.562;4.898;2023-04-25T14:45:44;2.57;;;1.70;;
7665;SDS011;3875;46.562;4.898;2023-04-25T14:48:10;2.60;;;1.60;;
7665;SDS011;3875;46.562;4.898;2023-04-25T14:50:36;4.57;;;1.83;;
7665;SDS011;3875;46.562;4.898;2023-04-25T14:53:01;4.43;;;1.77;;
7665;SDS011;3875;46.562;4.898;2023-04-25T14:55:27;2.83;;;1.80;;
7665;SDS011;3875;46.562;4.898;2023-04-25T14:57:53;1.80;;;1.70;;
7665;SDS011;3875;46.562;4.898;2023-04-25T15:55:22;3.17;;;1.53;;
7665;SDS011;3875;46.562;4.898;2023-04-25T15:57:53;3.20;;;1.97;;
7665;SDS011;3875;46.562;4.898;2023-04-25T16:00:22;2.33;;;1.67;;
7665;SDS011;3875;46.562;4.898;2023-04-25T16:02:47;2.67;;;1.77;;
7665;SDS011;3875;46.562;4.898;2023-04-25T16:05:13;1.97;;;1.73;;
7665;SDS011;3875;46.562;4.898;2023-04-25T16:07:42;4.90;;;1.80;;
7665;SDS011;3875;46.562;4.898;2023-04-25T16:10:10;3.17;;;1.50;;
7665;SDS011;3875;46.562;4.898;2023-04-25T16:12:49;4.33;;;1.73;;
7665;SDS011;3875;46.562;4.898;2023-04-25T16:15:15;2.50;;;1.87;;
7665;SDS011;3875;46.562;4.898;2023-04-25T16:17:41;2.13;;;1.80;;
7665;SDS011;3875;46.562;4.898;2023-04-25T16:20:07;3.33;;;1.80;;
7665;SDS011;3875;46.562;4.898;2023-04-25T16:22:37;4.70;;;1.80;;
7665;SDS011;3875;46.562;4.898;2023-04-25T16:25:04;1.80;;;1.70;;
7665;SDS011;3875;46.562;4.898;2023-04-25T16:27:30;3.10;;;1.87;;
7665;SDS011;3875;46.562;4.898;2023-04-25T16:29:58;1.70;;;1.50;;
7665;SDS011;3875;46.562;4.898;2023-04-25T16:32:24;1.60;;;1.50;;
7665;SDS011;3875;46.562;4.898;2023-04-25T16:34:50;1.93;;;1.50;;
7665;SDS011;3875;46.562;4.898;2023-04-25T16:37:16;4.23;;;1.47;;